SIA531 EGLL-WSSS
Flight info
| Callsign | SIA531 |
|---|---|
| Flight time | N/A |
| Altitude | 33000 |
| Route | DET L6 DVR L9 KONAN UL607 REMBA DCT MATUG DCT GUBAX DCT KOMIB L984 SULUS Z650 VEMUT DCT DITIS DCT ERGOM DCT DINRO DCT UDROS/N0485F350 UM859 KARDE UL851 TBN UR317 REBLO M11 LUSAL N199 BAKUV N701 LARGI B701 TUGTA A909 BABUM A477 AKRAM R226 MANAT/K0920F370 Z777 INDUD M875 AMDAR/N0500F370 M875 TAPIS L509 LAJAK M881 LAKRA/N0506F360 G325 ZB/N0500F370 G202 RK P628 IBANI L510 MABDU/N0492F390 L510 GIVAL P628 VPL Y503 RINBA Y507 MAKNA Y511 TOPOR A464 ARAMA DCT TEBUN TEBUN1A |
| Aircraft | A359/H-SDE2E3GHIJ3J4J5LM1ORWXY/LB1D1 |
Departure
| Time | N/A |
|---|---|
| Airport | London Heathrow Airport (EGLL) |
Arrival
| Time | 2026-05-01 08:29 |
|---|---|
| Airport | Singapore Changi Airport (WSSS) |
| Time | Latitude | Longitude | Altitude | Speed | Heading |
|---|---|---|---|---|---|
| 2026-05-01 07:23 | 6.27138 | 99.83152 | 38836 ft | 490 kts | 135° |
| 2026-05-01 07:24 | 6.19922 | 99.90441 | 38834 ft | 492 kts | 134° |
| 2026-05-01 07:24 | 6.15102 | 99.95341 | 38835 ft | 492 kts | 134° |
| 2026-05-01 07:25 | 6.10307 | 100.00240 | 38834 ft | 492 kts | 134° |
| 2026-05-01 07:25 | 6.05515 | 100.05151 | 38836 ft | 492 kts | 134° |
| 2026-05-01 07:26 | 6.00709 | 100.10058 | 38834 ft | 492 kts | 134° |
| 2026-05-01 07:26 | 5.95925 | 100.14941 | 38838 ft | 491 kts | 134° |
| 2026-05-01 07:27 | 5.91934 | 100.19016 | 38844 ft | 491 kts | 134° |
| 2026-05-01 07:27 | 5.86353 | 100.24719 | 38840 ft | 493 kts | 134° |
| 2026-05-01 07:28 | 5.82341 | 100.28815 | 38851 ft | 495 kts | 134° |
| 2026-05-01 07:28 | 5.77489 | 100.33765 | 38849 ft | 495 kts | 134° |
| 2026-05-01 07:29 | 5.72663 | 100.38687 | 38847 ft | 495 kts | 134° |
| 2026-05-01 07:29 | 5.67826 | 100.43621 | 38860 ft | 495 kts | 134° |
| 2026-05-01 07:30 | 5.63019 | 100.48524 | 38863 ft | 495 kts | 134° |
| 2026-05-01 07:30 | 5.58168 | 100.53470 | 38842 ft | 495 kts | 134° |
| 2026-05-01 07:31 | 5.53334 | 100.58397 | 38840 ft | 495 kts | 133° |
| 2026-05-01 07:32 | 5.41206 | 100.70676 | 38864 ft | 496 kts | 137° |
| 2026-05-01 07:33 | 5.32209 | 100.75633 | 38887 ft | 500 kts | 164° |
| 2026-05-01 07:33 | 5.21865 | 100.77495 | 38890 ft | 503 kts | 170° |
| 2026-05-01 07:34 | 5.11504 | 100.79044 | 38884 ft | 503 kts | 170° |
| 2026-05-01 07:35 | 5.04581 | 100.80119 | 38887 ft | 503 kts | 169° |
| 2026-05-01 07:35 | 4.97668 | 100.81211 | 38884 ft | 503 kts | 169° |
| 2026-05-01 07:36 | 4.90743 | 100.82314 | 38877 ft | 503 kts | 169° |
| 2026-05-01 07:36 | 4.83859 | 100.83401 | 38878 ft | 503 kts | 170° |
| 2026-05-01 07:37 | 4.73485 | 100.85036 | 38862 ft | 504 kts | 170° |
| 2026-05-01 07:37 | 4.66523 | 100.86134 | 38854 ft | 504 kts | 170° |
| 2026-05-01 07:38 | 4.59625 | 100.87223 | 38855 ft | 504 kts | 170° |
| 2026-05-01 07:39 | 4.49222 | 100.88884 | 38855 ft | 504 kts | 168° |
| 2026-05-01 07:39 | 4.39410 | 100.92502 | 38852 ft | 502 kts | 154° |
| 2026-05-01 07:40 | 4.33160 | 100.95533 | 38853 ft | 502 kts | 153° |
| 2026-05-01 07:40 | 4.26876 | 100.98635 | 38854 ft | 502 kts | 153° |
| 2026-05-01 07:41 | 4.20611 | 101.01708 | 38875 ft | 502 kts | 153° |
| 2026-05-01 07:42 | 4.11187 | 101.06300 | 38865 ft | 502 kts | 153° |
| 2026-05-01 07:42 | 4.04936 | 101.09340 | 38867 ft | 502 kts | 153° |
| 2026-05-01 07:43 | 3.98661 | 101.12393 | 38857 ft | 502 kts | 153° |
| 2026-05-01 07:43 | 3.89253 | 101.16971 | 38859 ft | 502 kts | 153° |
| 2026-05-01 07:44 | 3.76693 | 101.23082 | 38862 ft | 502 kts | 153° |
| 2026-05-01 07:45 | 3.70460 | 101.26252 | 38852 ft | 501 kts | 151° |
| 2026-05-01 07:45 | 3.64300 | 101.29502 | 38854 ft | 500 kts | 151° |
| 2026-05-01 07:46 | 3.58140 | 101.32743 | 38855 ft | 502 kts | 151° |
| 2026-05-01 07:47 | 3.48815 | 101.37605 | 38857 ft | 503 kts | 152° |
| 2026-05-01 07:47 | 3.42595 | 101.40838 | 38841 ft | 503 kts | 152° |
| 2026-05-01 07:48 | 3.33287 | 101.45678 | 38825 ft | 503 kts | 151° |
| 2026-05-01 07:48 | 3.27000 | 101.48782 | 38811 ft | 504 kts | 154° |
| 2026-05-01 07:49 | 3.17420 | 101.53093 | 38801 ft | 504 kts | 154° |
| 2026-05-01 07:50 | 3.11066 | 101.55983 | 38801 ft | 503 kts | 154° |
| 2026-05-01 07:50 | 3.01528 | 101.60378 | 38810 ft | 503 kts | 154° |
| 2026-05-01 07:51 | 2.95179 | 101.63311 | 38812 ft | 503 kts | 154° |
| 2026-05-01 07:52 | 2.85635 | 101.67716 | 38824 ft | 503 kts | 154° |
| 2026-05-01 07:52 | 2.79251 | 101.70665 | 38773 ft | 504 kts | 153° |
| 2026-05-01 07:53 | 2.69708 | 101.75082 | 38775 ft | 505 kts | 153° |
| 2026-05-01 07:53 | 2.63420 | 101.78140 | 38781 ft | 505 kts | 152° |
| 2026-05-01 07:55 | 2.49552 | 101.88385 | 38811 ft | 498 kts | 127° |
| 2026-05-01 07:56 | 2.39163 | 102.02213 | 38825 ft | 498 kts | 125° |
| 2026-05-01 07:57 | 2.32941 | 102.10505 | 38828 ft | 499 kts | 125° |
| 2026-05-01 07:58 | 2.24568 | 102.21612 | 38829 ft | 499 kts | 125° |
| 2026-05-01 07:59 | 2.16249 | 102.32650 | 38830 ft | 499 kts | 125° |
| 2026-05-01 08:00 | 2.03723 | 102.49276 | 38836 ft | 499 kts | 125° |
| 2026-05-01 08:01 | 1.95372 | 102.60359 | 38833 ft | 500 kts | 125° |
| 2026-05-01 08:02 | 1.89108 | 102.68668 | 38836 ft | 499 kts | 125° |
| 2026-05-01 08:03 | 1.82828 | 102.77004 | 38841 ft | 499 kts | 125° |
| 2026-05-01 08:03 | 1.76576 | 102.85302 | 38832 ft | 499 kts | 126° |
| 2026-05-01 08:04 | 1.69411 | 102.97061 | 38091 ft | 496 kts | 117° |
| 2026-05-01 08:05 | 1.66162 | 103.03188 | 36970 ft | 501 kts | 116° |
| 2026-05-01 08:05 | 1.64493 | 103.06281 | 36429 ft | 505 kts | 119° |
| 2026-05-01 08:05 | 1.62492 | 103.09143 | 35870 ft | 504 kts | 129° |
| 2026-05-01 08:06 | 1.57161 | 103.13560 | 34797 ft | 502 kts | 150° |
| 2026-05-01 08:06 | 1.50755 | 103.16305 | 33762 ft | 498 kts | 157° |
| 2026-05-01 08:07 | 1.44324 | 103.18846 | 32596 ft | 491 kts | 157° |
| 2026-05-01 08:07 | 1.38042 | 103.21340 | 31497 ft | 485 kts | 157° |
| 2026-05-01 08:08 | 1.34903 | 103.22586 | 30957 ft | 482 kts | 157° |
| 2026-05-01 08:08 | 1.28687 | 103.25057 | 29896 ft | 477 kts | 157° |
| 2026-05-01 08:09 | 1.22696 | 103.27793 | 28703 ft | 470 kts | 149° |
| 2026-05-01 08:09 | 1.19882 | 103.29419 | 28106 ft | 467 kts | 148° |
| 2026-05-01 08:09 | 1.17082 | 103.31054 | 27558 ft | 464 kts | 148° |
| 2026-05-01 08:10 | 1.11551 | 103.34268 | 26445 ft | 458 kts | 148° |
| 2026-05-01 08:10 | 1.06104 | 103.37423 | 25383 ft | 451 kts | 148° |
| 2026-05-01 08:11 | 1.00693 | 103.40554 | 24360 ft | 443 kts | 148° |
| 2026-05-01 08:11 | 0.96540 | 103.44790 | 23353 ft | 427 kts | 115° |
| 2026-05-01 08:12 | 0.95582 | 103.50480 | 22179 ft | 411 kts | 84° |
| 2026-05-01 08:12 | 0.95867 | 103.53288 | 21622 ft | 401 kts | 85° |
| 2026-05-01 08:12 | 0.96384 | 103.58693 | 20509 ft | 384 kts | 80° |
| 2026-05-01 08:13 | 0.96848 | 103.61290 | 19977 ft | 377 kts | 80° |
| 2026-05-01 08:13 | 0.97279 | 103.63847 | 19438 ft | 370 kts | 81° |
| 2026-05-01 08:13 | 0.98055 | 103.68908 | 18423 ft | 366 kts | 82° |
| 2026-05-01 08:14 | 0.98416 | 103.71401 | 17887 ft | 365 kts | 82° |
| 2026-05-01 08:14 | 0.98773 | 103.73898 | 17307 ft | 364 kts | 82° |
| 2026-05-01 08:14 | 0.99129 | 103.76409 | 16732 ft | 362 kts | 82° |
| 2026-05-01 08:14 | 0.99478 | 103.78894 | 16178 ft | 361 kts | 82° |
| 2026-05-01 08:15 | 0.99825 | 103.81368 | 15688 ft | 358 kts | 82° |
| 2026-05-01 08:15 | 1.00494 | 103.86215 | 14914 ft | 346 kts | 83° |
| 2026-05-01 08:15 | 1.00804 | 103.88585 | 14540 ft | 340 kts | 83° |
| 2026-05-01 08:16 | 1.01108 | 103.90911 | 14176 ft | 335 kts | 83° |
| 2026-05-01 08:16 | 1.01407 | 103.93194 | 13869 ft | 328 kts | 83° |
| 2026-05-01 08:16 | 1.01706 | 103.95432 | 13539 ft | 325 kts | 82° |
| 2026-05-01 08:16 | 1.02397 | 103.97555 | 13183 ft | 325 kts | 61° |
| 2026-05-01 08:17 | 1.03646 | 103.99434 | 12838 ft | 325 kts | 55° |
| 2026-05-01 08:17 | 1.04982 | 104.01251 | 12482 ft | 324 kts | 55° |
| 2026-05-01 08:17 | 1.06317 | 104.03066 | 12202 ft | 324 kts | 54° |
| 2026-05-01 08:17 | 1.07649 | 104.04888 | 11939 ft | 324 kts | 56° |
| 2026-05-01 08:18 | 1.08973 | 104.06698 | 11604 ft | 321 kts | 55° |
| 2026-05-01 08:18 | 1.11577 | 104.10301 | 11027 ft | 318 kts | 56° |
| 2026-05-01 08:19 | 1.14467 | 104.13561 | 10462 ft | 316 kts | 32° |
| 2026-05-01 08:19 | 1.16433 | 104.14500 | 10188 ft | 310 kts | 25° |
| 2026-05-01 08:19 | 1.18396 | 104.15310 | 9897 ft | 303 kts | 24° |
| 2026-05-01 08:19 | 1.20324 | 104.16106 | 9622 ft | 296 kts | 25° |
| 2026-05-01 08:20 | 1.22209 | 104.16894 | 9305 ft | 294 kts | 25° |
| 2026-05-01 08:20 | 1.23463 | 104.17422 | 9087 ft | 293 kts | 25° |
| 2026-05-01 08:20 | 1.25331 | 104.18213 | 8767 ft | 291 kts | 25° |
| 2026-05-01 08:20 | 1.27202 | 104.19008 | 8444 ft | 290 kts | 25° |
| 2026-05-01 08:21 | 1.29041 | 104.19790 | 8139 ft | 288 kts | 25° |
| 2026-05-01 08:21 | 1.30878 | 104.20573 | 7822 ft | 287 kts | 25° |
| 2026-05-01 08:21 | 1.32768 | 104.21165 | 7500 ft | 288 kts | 7° |
| 2026-05-01 08:21 | 1.34762 | 104.20995 | 7199 ft | 288 kts | 350° |
| 2026-05-01 08:22 | 1.36714 | 104.20569 | 6899 ft | 287 kts | 348° |
| 2026-05-01 08:22 | 1.38675 | 104.20122 | 6616 ft | 286 kts | 348° |
| 2026-05-01 08:22 | 1.40588 | 104.19695 | 6341 ft | 284 kts | 349° |
| 2026-05-01 08:22 | 1.42521 | 104.19271 | 6055 ft | 283 kts | 349° |
| 2026-05-01 08:23 | 1.44424 | 104.18858 | 5760 ft | 277 kts | 349° |
| 2026-05-01 08:23 | 1.46296 | 104.18453 | 5470 ft | 273 kts | 349° |
| 2026-05-01 08:23 | 1.48158 | 104.18060 | 5202 ft | 273 kts | 350° |
| 2026-05-01 08:23 | 1.50002 | 104.17650 | 4890 ft | 269 kts | 346° |
| 2026-05-01 08:24 | 1.51560 | 104.16709 | 4560 ft | 266 kts | 312° |
| 2026-05-01 08:24 | 1.52313 | 104.15082 | 4215 ft | 256 kts | 276° |
| 2026-05-01 08:24 | 1.52056 | 104.13389 | 3893 ft | 241 kts | 250° |
| 2026-05-01 08:24 | 1.51488 | 104.11846 | 3574 ft | 231 kts | 249° |
| 2026-05-01 08:25 | 1.50984 | 104.10353 | 3267 ft | 228 kts | 252° |
| 2026-05-01 08:25 | 1.50543 | 104.08834 | 2952 ft | 227 kts | 255° |
| 2026-05-01 08:25 | 1.50147 | 104.07314 | 2662 ft | 224 kts | 256° |
| 2026-05-01 08:25 | 1.49786 | 104.05828 | 2508 ft | 212 kts | 257° |
| 2026-05-01 08:26 | 1.49309 | 104.04517 | 2426 ft | 198 kts | 233° |
| 2026-05-01 08:26 | 1.48348 | 104.03549 | 2258 ft | 194 kts | 219° |
| 2026-05-01 08:26 | 1.47186 | 104.02885 | 2004 ft | 193 kts | 197° |
| 2026-05-01 08:26 | 1.45917 | 104.02460 | 1744 ft | 192 kts | 199° |
| 2026-05-01 08:27 | 1.44706 | 104.01940 | 1478 ft | 184 kts | 204° |
| 2026-05-01 08:27 | 1.43599 | 104.01435 | 1259 ft | 172 kts | 202° |
| 2026-05-01 08:27 | 1.42504 | 104.00966 | 1043 ft | 171 kts | 201° |
| 2026-05-01 08:27 | 1.41409 | 104.00503 | 816 ft | 169 kts | 200° |
| 2026-05-01 08:28 | 1.40363 | 104.00058 | 635 ft | 158 kts | 201° |
| 2026-05-01 08:28 | 1.39392 | 103.99646 | 421 ft | 149 kts | 202° |
| 2026-05-01 08:28 | 1.38453 | 103.99242 | 206 ft | 143 kts | 201° |
| 2026-05-01 08:28 | 1.37555 | 103.98867 | 37 ft | 132 kts | 204° |
| 2026-05-01 08:29 | 1.36879 | 103.98581 | 37 ft | 67 kts | 204° |
| 2026-05-01 08:29 | 1.36520 | 103.98429 | 37 ft | 53 kts | 203° |
| 2026-05-01 08:29 | 1.36189 | 103.98295 | 37 ft | 48 kts | 196° |
| 2026-05-01 08:29 | 1.35985 | 103.98282 | 37 ft | 17 kts | 173° |
| 2026-05-01 08:30 | 1.35885 | 103.98294 | 37 ft | 16 kts | 173° |
| 2026-05-01 08:30 | 1.35764 | 103.98307 | 37 ft | 18 kts | 168° |
| 2026-05-01 08:30 | 1.35676 | 103.98357 | 37 ft | 10 kts | 174° |
| 2026-05-01 08:30 | 1.35611 | 103.98340 | 37 ft | 10 kts | 200° |
| 2026-05-01 08:31 | 1.35533 | 103.98309 | 37 ft | 13 kts | 203° |
| 2026-05-01 08:31 | 1.35438 | 103.98283 | 37 ft | 15 kts | 176° |
| 2026-05-01 08:31 | 1.35334 | 103.98316 | 37 ft | 15 kts | 149° |
| 2026-05-01 08:31 | 1.35293 | 103.98388 | 37 ft | 0 kts | 112° |
| 2026-05-01 08:32 | 1.35289 | 103.98395 | 37 ft | 0 kts | 112° |